sensor_id;sensor_type;location;lat;lon;timestamp;pressure;altitude;pressure_sealevel;temperature;humidity
70916;BME280;58557;50.982;-3.222;2022-10-18T00:00:20;101797.35;;;13.43;46.01
70916;BME280;58557;50.982;-3.222;2022-10-18T00:02:46;101797.38;;;12.46;47.55
70916;BME280;58557;50.982;-3.222;2022-10-18T00:05:11;101790.52;;;13.68;46.74
70916;BME280;58557;50.982;-3.222;2022-10-18T00:07:37;101789.63;;;13.33;46.03
70916;BME280;58557;50.982;-3.222;2022-10-18T00:10:03;101788.44;;;12.62;47.23
70916;BME280;58557;50.982;-3.222;2022-10-18T00:12:27;101790.52;;;12.46;47.55
70916;BME280;58557;50.982;-3.222;2022-10-18T00:14:52;101793.94;;;11.46;50.23
70916;BME280;58557;50.982;-3.222;2022-10-18T00:17:17;101796.03;;;10.68;49.67
70916;BME280;58557;50.982;-3.222;2022-10-18T00:19:43;101800.38;;;10.88;51.26
70916;BME280;58557;50.982;-3.222;2022-10-18T00:22:08;101795.05;;;10.14;52.95
70916;BME280;58557;50.982;-3.222;2022-10-18T00:24:33;101796.73;;;10.74;53.00
70916;BME280;58557;50.982;-3.222;2022-10-18T00:26:58;101800.26;;;9.58;55.77
70916;BME280;58557;50.982;-3.222;2022-10-18T00:29:23;101799.39;;;10.20;54.19
70916;BME280;58557;50.982;-3.222;2022-10-18T00:31:49;101803.26;;;9.93;53.43
70916;BME280;58557;50.982;-3.222;2022-10-18T00:34:15;101798.96;;;8.05;59.98
70916;BME280;58557;50.982;-3.222;2022-10-18T00:36:41;101799.09;;;7.73;62.79
70916;BME280;58557;50.982;-3.222;2022-10-18T00:39:06;101803.88;;;9.59;58.20
70916;BME280;58557;50.982;-3.222;2022-10-18T00:41:32;101803.04;;;10.14;55.68
70916;BME280;58557;50.982;-3.222;2022-10-18T00:43:58;101803.11;;;9.36;57.42
70916;BME280;58557;50.982;-3.222;2022-10-18T00:46:22;101795.45;;;10.90;52.96
70916;BME280;58557;50.982;-3.222;2022-10-18T00:48:46;101798.41;;;9.07;56.70
70916;BME280;58557;50.982;-3.222;2022-10-18T00:51:11;101796.37;;;9.68;57.28
70916;BME280;58557;50.982;-3.222;2022-10-18T00:53:36;101790.20;;;7.82;61.46
70916;BME280;58557;50.982;-3.222;2022-10-18T00:56:02;101789.50;;;7.10;66.05
70916;BME280;58557;50.982;-3.222;2022-10-18T00:58:27;101782.16;;;7.96;62.93
70916;BME280;58557;50.982;-3.222;2022-10-18T01:00:52;101783.96;;;7.70;64.92
70916;BME280;58557;50.982;-3.222;2022-10-18T01:03:17;101782.77;;;7.29;66.77
70916;BME280;58557;50.982;-3.222;2022-10-18T01:05:45;101783.64;;;9.12;60.77
70916;BME280;58557;50.982;-3.222;2022-10-18T01:08:26;101788.62;;;8.09;63.59
70916;BME280;58557;50.982;-3.222;2022-10-18T01:10:40;101793.63;;;7.56;64.43
70916;BME280;58557;50.982;-3.222;2022-10-18T01:13:10;101802.20;;;8.49;60.68
70916;BME280;58557;50.982;-3.222;2022-10-18T01:15:28;101812.61;;;9.46;57.59
70916;BME280;58557;50.982;-3.222;2022-10-18T01:17:55;101806.94;;;8.47;60.24
70916;BME280;58557;50.982;-3.222;2022-10-18T01:22:44;101804.89;;;9.18;59.76
70916;BME280;58557;50.982;-3.222;2022-10-18T01:25:19;101801.61;;;10.60;55.32
70916;BME280;58557;50.982;-3.222;2022-10-18T01:27:42;101801.64;;;10.98;53.10
70916;BME280;58557;50.982;-3.222;2022-10-18T01:32:26;101810.98;;;11.14;50.55
70916;BME280;58557;50.982;-3.222;2022-10-18T01:34:51;101811.39;;;12.18;50.20
70916;BME280;58557;50.982;-3.222;2022-10-18T01:37:16;101815.23;;;11.99;49.03
70916;BME280;58557;50.982;-3.222;2022-10-18T01:39:42;101820.06;;;12.62;47.19
70916;BME280;58557;50.982;-3.222;2022-10-18T01:42:07;101824.99;;;12.77;46.27
70916;BME280;58557;50.982;-3.222;2022-10-18T01:44:32;101825.91;;;12.81;46.73
70916;BME280;58557;50.982;-3.222;2022-10-18T01:46:56;101820.12;;;13.18;46.08
70916;BME280;58557;50.982;-3.222;2022-10-18T01:49:21;101818.37;;;12.67;47.28
70916;BME280;58557;50.982;-3.222;2022-10-18T01:51:47;101819.72;;;12.85;45.83
70916;BME280;58557;50.982;-3.222;2022-10-18T01:54:16;101811.20;;;12.21;46.83
70916;BME280;58557;50.982;-3.222;2022-10-18T01:56:43;101805.44;;;12.52;47.19
70916;BME280;58557;50.982;-3.222;2022-10-18T01:59:16;101806.57;;;12.57;46.76
70916;BME280;58557;50.982;-3.222;2022-10-18T02:01:34;101806.87;;;13.11;46.02
70916;BME280;58557;50.982;-3.222;2022-10-18T02:03:59;101811.46;;;12.92;45.89
70916;BME280;58557;50.982;-3.222;2022-10-18T02:06:24;101807.06;;;13.12;45.44
70916;BME280;58557;50.982;-3.222;2022-10-18T02:08:49;101805.52;;;13.38;45.12
70916;BME280;58557;50.982;-3.222;2022-10-18T02:11:12;101810.58;;;13.08;45.26
70916;BME280;58557;50.982;-3.222;2022-10-18T02:13:39;101810.14;;;13.91;43.67
70916;BME280;58557;50.982;-3.222;2022-10-18T02:16:05;101805.25;;;13.27;44.96
70916;BME280;58557;50.982;-3.222;2022-10-18T02:18:31;101802.77;;;13.42;44.23
70916;BME280;58557;50.982;-3.222;2022-10-18T02:20:53;101807.14;;;12.90;45.31
70916;BME280;58557;50.982;-3.222;2022-10-18T02:23:21;101809.16;;;12.89;46.27
70916;BME280;58557;50.982;-3.222;2022-10-18T02:25:42;101809.89;;;13.20;45.42
70916;BME280;58557;50.982;-3.222;2022-10-18T02:28:08;101810.90;;;12.49;46.00
70916;BME280;58557;50.982;-3.222;2022-10-18T02:30:38;101811.22;;;12.47;46.19
70916;BME280;58557;50.982;-3.222;2022-10-18T02:33:03;101811.03;;;12.48;46.94
70916;BME280;58557;50.982;-3.222;2022-10-18T02:35:26;101814.15;;;12.84;45.37
70916;BME280;58557;50.982;-3.222;2022-10-18T02:37:49;101811.73;;;12.61;46.37
70916;BME280;58557;50.982;-3.222;2022-10-18T02:40:15;101809.04;;;12.92;44.26
70916;BME280;58557;50.982;-3.222;2022-10-18T02:42:45;101813.75;;;13.20;44.29
70916;BME280;58557;50.982;-3.222;2022-10-18T02:45:06;101821.90;;;12.12;45.80
70916;BME280;58557;50.982;-3.222;2022-10-18T02:47:30;101824.77;;;12.73;45.29
70916;BME280;58557;50.982;-3.222;2022-10-18T02:49:55;101828.65;;;12.94;44.76
70916;BME280;58557;50.982;-3.222;2022-10-18T02:52:20;101827.13;;;12.52;44.62
70916;BME280;58557;50.982;-3.222;2022-10-18T02:54:46;101822.31;;;12.63;44.76
70916;BME280;58557;50.982;-3.222;2022-10-18T02:57:11;101823.22;;;12.32;46.28
70916;BME280;58557;50.982;-3.222;2022-10-18T02:59:37;101823.77;;;12.03;46.52
70916;BME280;58557;50.982;-3.222;2022-10-18T03:02:02;101821.14;;;11.70;46.50
70916;BME280;58557;50.982;-3.222;2022-10-18T03:04:27;101827.11;;;12.24;46.27
70916;BME280;58557;50.982;-3.222;2022-10-18T03:06:57;101825.44;;;12.66;45.28
70916;BME280;58557;50.982;-3.222;2022-10-18T03:09:18;101824.19;;;12.77;45.26
70916;BME280;58557;50.982;-3.222;2022-10-18T03:11:43;101824.06;;;13.05;44.99
70916;BME280;58557;50.982;-3.222;2022-10-18T03:14:09;101823.78;;;12.66;44.54
70916;BME280;58557;50.982;-3.222;2022-10-18T03:16:34;101827.70;;;12.02;45.42
70916;BME280;58557;50.982;-3.222;2022-10-18T03:18:59;101827.39;;;12.31;46.16
70916;BME280;58557;50.982;-3.222;2022-10-18T03:21:25;101830.45;;;12.34;45.05
70916;BME280;58557;50.982;-3.222;2022-10-18T03:23:51;101832.45;;;12.40;44.90
70916;BME280;58557;50.982;-3.222;2022-10-18T03:26:16;101833.79;;;12.56;44.91
70916;BME280;58557;50.982;-3.222;2022-10-18T03:28:41;101834.73;;;11.67;45.63
70916;BME280;58557;50.982;-3.222;2022-10-18T03:31:06;101838.34;;;12.20;45.79
70916;BME280;58557;50.982;-3.222;2022-10-18T03:33:32;101841.42;;;10.49;47.63
70916;BME280;58557;50.982;-3.222;2022-10-18T03:35:57;101839.65;;;11.77;47.22
70916;BME280;58557;50.982;-3.222;2022-10-18T03:38:22;101837.46;;;12.32;45.66
70916;BME280;58557;50.982;-3.222;2022-10-18T03:40:47;101837.22;;;12.56;44.96
70916;BME280;58557;50.982;-3.222;2022-10-18T03:43:12;101839.06;;;12.24;46.03
70916;BME280;58557;50.982;-3.222;2022-10-18T03:45:37;101839.27;;;12.21;45.41
70916;BME280;58557;50.982;-3.222;2022-10-18T03:48:03;101840.42;;;12.66;44.58
70916;BME280;58557;50.982;-3.222;2022-10-18T03:50:28;101842.41;;;12.50;44.51
70916;BME280;58557;50.982;-3.222;2022-10-18T03:52:53;101845.71;;;11.70;46.41
70916;BME280;58557;50.982;-3.222;2022-10-18T03:55:18;101852.38;;;13.03;43.61
70916;BME280;58557;50.982;-3.222;2022-10-18T03:57:43;101851.02;;;12.22;44.11
70916;BME280;58557;50.982;-3.222;2022-10-18T04:00:09;101845.47;;;12.54;45.54
70916;BME280;58557;50.982;-3.222;2022-10-18T04:02:34;101847.96;;;12.86;44.81
70916;BME280;58557;50.982;-3.222;2022-10-18T04:04:59;101846.05;;;12.34;46.25
70916;BME280;58557;50.982;-3.222;2022-10-18T04:07:24;101849.67;;;12.31;45.97
70916;BME280;58557;50.982;-3.222;2022-10-18T04:09:49;101852.84;;;11.90;46.58
70916;BME280;58557;50.982;-3.222;2022-10-18T04:12:15;101857.12;;;11.87;46.88
70916;BME280;58557;50.982;-3.222;2022-10-18T04:14:40;101857.68;;;11.59;46.23
70916;BME280;58557;50.982;-3.222;2022-10-18T04:17:06;101854.72;;;12.00;45.74
70916;BME280;58557;50.982;-3.222;2022-10-18T04:19:31;101853.77;;;12.28;45.76
70916;BME280;58557;50.982;-3.222;2022-10-18T04:21:56;101851.12;;;11.71;46.29
70916;BME280;58557;50.982;-3.222;2022-10-18T04:24:22;101858.19;;;12.65;43.88
70916;BME280;58557;50.982;-3.222;2022-10-18T04:26:47;101861.34;;;12.43;44.68
70916;BME280;58557;50.982;-3.222;2022-10-18T04:29:13;101860.45;;;12.64;44.26
70916;BME280;58557;50.982;-3.222;2022-10-18T04:31:38;101858.32;;;12.24;46.47
70916;BME280;58557;50.982;-3.222;2022-10-18T04:34:03;101857.61;;;12.24;46.12
70916;BME280;58557;50.982;-3.222;2022-10-18T04:36:28;101858.83;;;12.85;44.65
70916;BME280;58557;50.982;-3.222;2022-10-18T04:38:53;101861.82;;;13.05;44.43
70916;BME280;58557;50.982;-3.222;2022-10-18T04:41:19;101860.43;;;13.62;42.96
70916;BME280;58557;50.982;-3.222;2022-10-18T04:43:44;101865.37;;;13.23;44.70
70916;BME280;58557;50.982;-3.222;2022-10-18T04:46:10;101867.82;;;13.46;44.77
70916;BME280;58557;50.982;-3.222;2022-10-18T04:48:35;101867.96;;;13.70;43.91
70916;BME280;58557;50.982;-3.222;2022-10-18T04:51:01;101870.04;;;13.75;43.97
70916;BME280;58557;50.982;-3.222;2022-10-18T04:53:26;101868.83;;;13.78;44.71
70916;BME280;58557;50.982;-3.222;2022-10-18T04:55:52;101871.26;;;14.24;43.51
70916;BME280;58557;50.982;-3.222;2022-10-18T04:58:18;101865.74;;;13.66;45.18
70916;BME280;58557;50.982;-3.222;2022-10-18T05:00:43;101870.17;;;13.98;44.10
70916;BME280;58557;50.982;-3.222;2022-10-18T05:03:08;101872.98;;;14.22;43.58
70916;BME280;58557;50.982;-3.222;2022-10-18T05:05:33;101864.25;;;13.85;43.58
70916;BME280;58557;50.982;-3.222;2022-10-18T05:07:58;101866.25;;;14.32;44.56
70916;BME280;58557;50.982;-3.222;2022-10-18T05:10:24;101865.34;;;13.61;44.71
70916;BME280;58557;50.982;-3.222;2022-10-18T05:12:49;101869.79;;;14.15;43.59
70916;BME280;58557;50.982;-3.222;2022-10-18T05:15:15;101871.17;;;13.80;44.75
70916;BME280;58557;50.982;-3.222;2022-10-18T05:17:40;101870.44;;;14.21;44.01
70916;BME280;58557;50.982;-3.222;2022-10-18T05:20:06;101873.01;;;14.06;44.36
70916;BME280;58557;50.982;-3.222;2022-10-18T05:22:32;101872.25;;;14.68;42.93
70916;BME280;58557;50.982;-3.222;2022-10-18T05:24:57;101865.68;;;14.40;43.00
70916;BME280;58557;50.982;-3.222;2022-10-18T05:27:22;101865.24;;;13.56;44.57
70916;BME280;58557;50.982;-3.222;2022-10-18T05:29:47;101873.40;;;14.59;43.08
70916;BME280;58557;50.982;-3.222;2022-10-18T05:32:12;101874.14;;;14.26;43.45
70916;BME280;58557;50.982;-3.222;2022-10-18T05:34:38;101870.52;;;14.24;43.13
70916;BME280;58557;50.982;-3.222;2022-10-18T05:37:03;101870.03;;;13.97;43.98
70916;BME280;58557;50.982;-3.222;2022-10-18T05:39:28;101872.35;;;13.75;44.17
70916;BME280;58557;50.982;-3.222;2022-10-18T05:41:54;101878.15;;;14.13;43.86
70916;BME280;58557;50.982;-3.222;2022-10-18T05:44:19;101878.53;;;13.42;43.94
70916;BME280;58557;50.982;-3.222;2022-10-18T05:46:44;101878.18;;;13.53;44.69
70916;BME280;58557;50.982;-3.222;2022-10-18T05:49:11;101874.91;;;13.33;45.10
70916;BME280;58557;50.982;-3.222;2022-10-18T05:51:36;101872.08;;;13.00;45.43
70916;BME280;58557;50.982;-3.222;2022-10-18T05:54:01;101873.26;;;13.21;44.95
70916;BME280;58557;50.982;-3.222;2022-10-18T05:56:26;101875.97;;;14.16;44.42
70916;BME280;58557;50.982;-3.222;2022-10-18T05:58:52;101875.21;;;13.84;44.43
70916;BME280;58557;50.982;-3.222;2022-10-18T06:01:18;101875.69;;;13.49;45.08
70916;BME280;58557;50.982;-3.222;2022-10-18T06:03:42;101882.49;;;13.71;44.87
70916;BME280;58557;50.982;-3.222;2022-10-18T06:06:09;101881.60;;;13.85;45.44
70916;BME280;58557;50.982;-3.222;2022-10-18T06:08:34;101887.99;;;12.58;47.19
70916;BME280;58557;50.982;-3.222;2022-10-18T06:10:59;101891.13;;;12.59;47.02
70916;BME280;58557;50.982;-3.222;2022-10-18T06:13:25;101893.71;;;13.15;46.47
70916;BME280;58557;50.982;-3.222;2022-10-18T06:15:53;101899.48;;;12.25;47.94
70916;BME280;58557;50.982;-3.222;2022-10-18T06:18:15;101902.13;;;13.34;46.16
70916;BME280;58557;50.982;-3.222;2022-10-18T06:20:40;101907.98;;;12.60;46.77
70916;BME280;58557;50.982;-3.222;2022-10-18T06:23:05;101908.16;;;12.73;46.79
70916;BME280;58557;50.982;-3.222;2022-10-18T06:25:30;101911.55;;;12.87;47.04
70916;BME280;58557;50.982;-3.222;2022-10-18T06:27:55;101912.83;;;12.63;45.48
70916;BME280;58557;50.982;-3.222;2022-10-18T06:30:20;101909.12;;;12.77;47.35
70916;BME280;58557;50.982;-3.222;2022-10-18T06:32:45;101907.89;;;13.57;45.98
70916;BME280;58557;50.982;-3.222;2022-10-18T06:35:11;101907.51;;;13.37;45.75
70916;BME280;58557;50.982;-3.222;2022-10-18T06:37:36;101909.13;;;13.36;46.42
70916;BME280;58557;50.982;-3.222;2022-10-18T06:40:01;101906.30;;;13.25;46.34
70916;BME280;58557;50.982;-3.222;2022-10-18T06:42:26;101907.74;;;13.17;45.77
70916;BME280;58557;50.982;-3.222;2022-10-18T06:44:51;101910.04;;;12.40;46.91
70916;BME280;58557;50.982;-3.222;2022-10-18T06:47:17;101913.31;;;12.78;47.84
70916;BME280;58557;50.982;-3.222;2022-10-18T06:49:42;101913.59;;;12.76;49.03
70916;BME280;58557;50.982;-3.222;2022-10-18T06:52:07;101910.08;;;12.64;48.40
70916;BME280;58557;50.982;-3.222;2022-10-18T06:54:32;101912.80;;;12.49;48.75
70916;BME280;58557;50.982;-3.222;2022-10-18T06:56:57;101916.59;;;12.68;47.33
70916;BME280;58557;50.982;-3.222;2022-10-18T06:59:22;101921.47;;;12.93;46.63
70916;BME280;58557;50.982;-3.222;2022-10-18T07:01:47;101923.16;;;13.11;46.86
70916;BME280;58557;50.982;-3.222;2022-10-18T07:04:12;101924.38;;;13.56;46.48
70916;BME280;58557;50.982;-3.222;2022-10-18T07:06:37;101926.35;;;13.33;46.42
70916;BME280;58557;50.982;-3.222;2022-10-18T07:09:02;101929.00;;;12.75;46.10
70916;BME280;58557;50.982;-3.222;2022-10-18T07:11:28;101930.54;;;12.58;47.91
70916;BME280;58557;50.982;-3.222;2022-10-18T07:13:58;101929.31;;;11.68;48.82
70916;BME280;58557;50.982;-3.222;2022-10-18T07:16:20;101933.09;;;13.20;46.72
70916;BME280;58557;50.982;-3.222;2022-10-18T07:18:46;101936.83;;;13.36;46.01
70916;BME280;58557;50.982;-3.222;2022-10-18T07:21:11;101940.62;;;12.49;47.26
70916;BME280;58557;50.982;-3.222;2022-10-18T07:23:37;101944.87;;;12.94;48.25
70916;BME280;58557;50.982;-3.222;2022-10-18T07:26:02;101946.26;;;13.08;46.74
70916;BME280;58557;50.982;-3.222;2022-10-18T07:28:27;101949.81;;;13.43;46.75
70916;BME280;58557;50.982;-3.222;2022-10-18T07:30:52;101955.42;;;13.31;46.64
70916;BME280;58557;50.982;-3.222;2022-10-18T07:33:17;101960.33;;;13.57;46.47
70916;BME280;58557;50.982;-3.222;2022-10-18T07:35:42;101959.76;;;13.53;45.79
70916;BME280;58557;50.982;-3.222;2022-10-18T07:38:08;101955.30;;;13.89;46.12
70916;BME280;58557;50.982;-3.222;2022-10-18T07:40:34;101953.59;;;14.32;44.60
70916;BME280;58557;50.982;-3.222;2022-10-18T07:43:00;101954.91;;;13.95;44.80
70916;BME280;58557;50.982;-3.222;2022-10-18T07:45:25;101961.76;;;13.45;45.67
70916;BME280;58557;50.982;-3.222;2022-10-18T07:47:53;101970.35;;;13.00;45.79
70916;BME280;58557;50.982;-3.222;2022-10-18T07:50:16;101973.36;;;13.58;46.04
70916;BME280;58557;50.982;-3.222;2022-10-18T07:52:41;101972.57;;;14.17;45.01
70916;BME280;58557;50.982;-3.222;2022-10-18T07:55:07;101975.08;;;13.79;44.37
70916;BME280;58557;50.982;-3.222;2022-10-18T07:57:32;101978.09;;;14.35;44.68
70916;BME280;58557;50.982;-3.222;2022-10-18T07:59:58;101982.29;;;13.70;45.18
70916;BME280;58557;50.982;-3.222;2022-10-18T08:02:24;101981.26;;;14.09;45.38
70916;BME280;58557;50.982;-3.222;2022-10-18T08:04:49;101980.18;;;14.42;44.54
70916;BME280;58557;50.982;-3.222;2022-10-18T08:07:14;101984.98;;;14.07;45.13
70916;BME280;58557;50.982;-3.222;2022-10-18T08:09:40;101983.05;;;14.14;44.96
70916;BME280;58557;50.982;-3.222;2022-10-18T08:12:06;101986.17;;;13.62;46.25
70916;BME280;58557;50.982;-3.222;2022-10-18T08:14:32;101985.06;;;13.42;47.39
70916;BME280;58557;50.982;-3.222;2022-10-18T08:16:56;101980.29;;;13.87;46.98
70916;BME280;58557;50.982;-3.222;2022-10-18T08:19:21;101975.72;;;12.18;49.39
70916;BME280;58557;50.982;-3.222;2022-10-18T08:21:47;101973.41;;;12.86;50.00
70916;BME280;58557;50.982;-3.222;2022-10-18T08:24:12;101974.91;;;11.84;52.00
70916;BME280;58557;50.982;-3.222;2022-10-18T08:26:37;101970.52;;;12.01;53.17
70916;BME280;58557;50.982;-3.222;2022-10-18T08:29:03;101972.22;;;11.70;55.21
70916;BME280;58557;50.982;-3.222;2022-10-18T08:31:28;101974.73;;;11.81;54.23
70916;BME280;58557;50.982;-3.222;2022-10-18T08:33:54;101978.33;;;12.07;54.28
70916;BME280;58557;50.982;-3.222;2022-10-18T08:36:19;101981.70;;;11.22;55.98
70916;BME280;58557;50.982;-3.222;2022-10-18T08:38:45;101984.86;;;11.46;55.73
70916;BME280;58557;50.982;-3.222;2022-10-18T08:41:23;101985.47;;;10.21;59.06
70916;BME280;58557;50.982;-3.222;2022-10-18T08:43:39;101985.91;;;9.84;60.64
70916;BME280;58557;50.982;-3.222;2022-10-18T08:46:00;101983.91;;;10.32;59.91
70916;BME280;58557;50.982;-3.222;2022-10-18T08:48:32;101983.12;;;10.63;59.60
70916;BME280;58557;50.982;-3.222;2022-10-18T08:50:53;101987.78;;;11.58;57.40
70916;BME280;58557;50.982;-3.222;2022-10-18T08:53:19;101993.77;;;11.76;56.33
70916;BME280;58557;50.982;-3.222;2022-10-18T08:55:44;101991.80;;;11.69;55.37
70916;BME280;58557;50.982;-3.222;2022-10-18T08:58:14;101983.77;;;12.48;52.73
70916;BME280;58557;50.982;-3.222;2022-10-18T09:00:36;101986.26;;;13.21;51.04
70916;BME280;58557;50.982;-3.222;2022-10-18T09:03:12;101987.04;;;13.81;49.22
70916;BME280;58557;50.982;-3.222;2022-10-18T09:05:28;101994.24;;;13.83;50.18
70916;BME280;58557;50.982;-3.222;2022-10-18T09:08:01;101994.95;;;14.42;48.81
70916;BME280;58557;50.982;-3.222;2022-10-18T09:10:20;101988.20;;;14.49;48.41
70916;BME280;58557;50.982;-3.222;2022-10-18T09:12:52;101987.37;;;14.12;47.18
70916;BME280;58557;50.982;-3.222;2022-10-18T09:15:12;101988.12;;;14.66;47.69
70916;BME280;58557;50.982;-3.222;2022-10-18T09:17:36;101993.40;;;14.67;46.99
70916;BME280;58557;50.982;-3.222;2022-10-18T09:20:08;101996.50;;;14.92;47.54
70916;BME280;58557;50.982;-3.222;2022-10-18T09:22:27;101993.94;;;14.83;47.71
70916;BME280;58557;50.982;-3.222;2022-10-18T09:24:52;101989.02;;;15.29;45.93
70916;BME280;58557;50.982;-3.222;2022-10-18T09:27:15;101983.28;;;15.22;46.88
70916;BME280;58557;50.982;-3.222;2022-10-18T09:29:48;101983.48;;;15.46;46.89
70916;BME280;58557;50.982;-3.222;2022-10-18T09:32:13;101978.37;;;14.86;47.94
70916;BME280;58557;50.982;-3.222;2022-10-18T09:34:33;101980.57;;;15.37;48.68
70916;BME280;58557;50.982;-3.222;2022-10-18T09:36:55;101986.64;;;14.96;49.35
70916;BME280;58557;50.982;-3.222;2022-10-18T09:39:24;101984.49;;;14.31;49.45
70916;BME280;58557;50.982;-3.222;2022-10-18T09:41:49;101985.54;;;15.10;48.39
70916;BME280;58557;50.982;-3.222;2022-10-18T09:44:16;101989.24;;;15.68;47.94
70916;BME280;58557;50.982;-3.222;2022-10-18T09:46:38;101990.96;;;15.92;47.52
70916;BME280;58557;50.982;-3.222;2022-10-18T09:49:04;101992.58;;;15.77;48.20
70916;BME280;58557;50.982;-3.222;2022-10-18T09:51:32;101988.89;;;15.24;48.38
70916;BME280;58557;50.982;-3.222;2022-10-18T09:54:02;101988.85;;;15.52;47.47
70916;BME280;58557;50.982;-3.222;2022-10-18T09:56:22;101978.13;;;15.29;49.88
70916;BME280;58557;50.982;-3.222;2022-10-18T09:58:45;101979.84;;;14.78;50.94
70916;BME280;58557;50.982;-3.222;2022-10-18T10:01:12;101980.88;;;15.34;50.28
70916;BME280;58557;50.982;-3.222;2022-10-18T10:03:35;101984.25;;;15.51;49.82
70916;BME280;58557;50.982;-3.222;2022-10-18T10:06:02;101985.38;;;16.02;48.71
70916;BME280;58557;50.982;-3.222;2022-10-18T10:08:32;101987.88;;;15.58;50.11
70916;BME280;58557;50.982;-3.222;2022-10-18T10:10:51;101984.07;;;16.94;47.69
70916;BME280;58557;50.982;-3.222;2022-10-18T10:13:18;101992.50;;;15.53;48.85
70916;BME280;58557;50.982;-3.222;2022-10-18T10:15:45;101986.66;;;15.73;49.16
70916;BME280;58557;50.982;-3.222;2022-10-18T10:18:16;101981.28;;;15.93;49.28
70916;BME280;58557;50.982;-3.222;2022-10-18T10:20:40;101981.80;;;15.16;51.96
70916;BME280;58557;50.982;-3.222;2022-10-18T10:23:04;101976.12;;;15.75;52.85
70916;BME280;58557;50.982;-3.222;2022-10-18T10:25:30;101971.35;;;16.69;49.47
70916;BME280;58557;50.982;-3.222;2022-10-18T10:27:50;101971.26;;;16.52;48.14
70916;BME280;58557;50.982;-3.222;2022-10-18T10:30:24;101968.92;;;16.50;49.85
70916;BME280;58557;50.982;-3.222;2022-10-18T10:32:45;101972.86;;;17.30;49.52
70916;BME280;58557;50.982;-3.222;2022-10-18T10:37:34;101970.00;;;15.41;54.29
70916;BME280;58557;50.982;-3.222;2022-10-18T10:40:09;101962.68;;;15.48;55.80
70916;BME280;58557;50.982;-3.222;2022-10-18T10:42:23;101962.07;;;14.98;58.06
70916;BME280;58557;50.982;-3.222;2022-10-18T10:44:53;101966.84;;;16.03;55.19
70916;BME280;58557;50.982;-3.222;2022-10-18T10:49:42;101961.61;;;17.12;51.98
70916;BME280;58557;50.982;-3.222;2022-10-18T10:52:05;101957.40;;;16.74;53.65
70916;BME280;58557;50.982;-3.222;2022-10-18T10:54:31;101948.34;;;17.39;51.06
70916;BME280;58557;50.982;-3.222;2022-10-18T10:56:57;101948.84;;;17.57;51.52
70916;BME280;58557;50.982;-3.222;2022-10-18T10:59:22;101949.55;;;16.85;53.06
70916;BME280;58557;50.982;-3.222;2022-10-18T11:01:46;101960.12;;;16.07;55.96
70916;BME280;58557;50.982;-3.222;2022-10-18T11:04:21;101957.41;;;16.50;54.81
70916;BME280;58557;50.982;-3.222;2022-10-18T11:06:42;101964.08;;;18.13;50.81
70916;BME280;58557;50.982;-3.222;2022-10-18T11:09:05;101956.79;;;19.06;48.91
70916;BME280;58557;50.982;-3.222;2022-10-18T11:11:30;101957.85;;;19.22;47.39
70916;BME280;58557;50.982;-3.222;2022-10-18T11:13:57;101964.07;;;20.40;45.57
70916;BME280;58557;50.982;-3.222;2022-10-18T11:16:23;101966.20;;;19.72;45.35
70916;BME280;58557;50.982;-3.222;2022-10-18T11:18:47;101964.46;;;19.44;45.46
70916;BME280;58557;50.982;-3.222;2022-10-18T11:21:12;101960.31;;;19.85;46.53
70916;BME280;58557;50.982;-3.222;2022-10-18T11:23:35;101960.43;;;19.90;45.38
70916;BME280;58557;50.982;-3.222;2022-10-18T11:26:13;101956.31;;;20.28;45.16
70916;BME280;58557;50.982;-3.222;2022-10-18T11:28:34;101950.56;;;20.52;44.66
70916;BME280;58557;50.982;-3.222;2022-10-18T11:31:01;101949.24;;;19.66;45.94
70916;BME280;58557;50.982;-3.222;2022-10-18T11:33:21;101944.88;;;19.07;47.68
70916;BME280;58557;50.982;-3.222;2022-10-18T11:35:44;101946.45;;;19.60;47.47
70916;BME280;58557;50.982;-3.222;2022-10-18T11:38:17;101943.60;;;20.06;46.86
70916;BME280;58557;50.982;-3.222;2022-10-18T11:40:43;101936.91;;;20.10;46.74
70916;BME280;58557;50.982;-3.222;2022-10-18T11:43:01;101936.65;;;20.18;47.31
70916;BME280;58557;50.982;-3.222;2022-10-18T11:45:29;101934.86;;;20.54;46.01
70916;BME280;58557;50.982;-3.222;2022-10-18T11:47:51;101932.05;;;19.68;46.86
70916;BME280;58557;50.982;-3.222;2022-10-18T11:50:21;101931.79;;;20.13;47.26
70916;BME280;58557;50.982;-3.222;2022-10-18T11:52:44;101927.38;;;19.88;46.75
70916;BME280;58557;50.982;-3.222;2022-10-18T11:55:17;101922.28;;;19.84;48.18
70916;BME280;58557;50.982;-3.222;2022-10-18T11:57:39;101920.25;;;19.80;47.19
70916;BME280;58557;50.982;-3.222;2022-10-18T12:00:02;101911.27;;;19.80;46.79
70916;BME280;58557;50.982;-3.222;2022-10-18T12:02:43;101896.71;;;20.44;46.06
70916;BME280;58557;50.982;-3.222;2022-10-18T12:04:50;101896.51;;;18.91;48.60
70916;BME280;58557;50.982;-3.222;2022-10-18T12:07:13;101893.84;;;16.83;54.99
70916;BME280;58557;50.982;-3.222;2022-10-18T12:09:40;101885.94;;;16.94;57.83
70916;BME280;58557;50.982;-3.222;2022-10-18T12:12:07;101881.88;;;17.62;54.95
70916;BME280;58557;50.982;-3.222;2022-10-18T12:14:32;101879.37;;;18.00;54.66
70916;BME280;58557;50.982;-3.222;2022-10-18T12:16:56;101875.72;;;18.41;51.76
70916;BME280;58557;50.982;-3.222;2022-10-18T12:19:21;101868.49;;;17.13;55.03
70916;BME280;58557;50.982;-3.222;2022-10-18T12:21:46;101861.34;;;17.70;53.42
70916;BME280;58557;50.982;-3.222;2022-10-18T12:24:13;101856.68;;;18.13;53.21
70916;BME280;58557;50.982;-3.222;2022-10-18T12:26:36;101865.67;;;19.71;51.12
70916;BME280;58557;50.982;-3.222;2022-10-18T12:29:11;101869.38;;;20.66;48.27
70916;BME280;58557;50.982;-3.222;2022-10-18T12:31:30;101875.11;;;20.08;48.32
70916;BME280;58557;50.982;-3.222;2022-10-18T12:33:55;101869.65;;;20.30;46.89
70916;BME280;58557;50.982;-3.222;2022-10-18T12:36:36;101868.60;;;20.71;47.00
70916;BME280;58557;50.982;-3.222;2022-10-18T12:38:45;101874.45;;;19.38;48.80